sensor_id;sensor_type;location;lat;lon;timestamp;P1;durP1;ratioP1;P2;durP2;ratioP2
3696;SDS011;60662;48.810;8.872;2023-02-21T08:32:35;16.35;;;3.85;;
3696;SDS011;60662;48.810;8.872;2023-02-21T08:33:37;16.50;;;4.53;;
3696;SDS011;60662;48.810;8.872;2023-02-21T08:34:38;12.48;;;3.97;;
3696;SDS011;60662;48.810;8.872;2023-02-21T08:35:40;14.82;;;4.03;;
3696;SDS011;60662;48.810;8.872;2023-02-21T08:36:41;11.88;;;4.10;;
3696;SDS011;60662;48.810;8.872;2023-02-21T08:37:44;17.63;;;4.20;;
3696;SDS011;60662;48.810;8.872;2023-02-21T08:38:50;14.95;;;4.13;;
3696;SDS011;60662;48.810;8.872;2023-02-21T08:39:51;24.40;;;5.35;;
3696;SDS011;60662;48.810;8.872;2023-02-21T08:40:53;17.70;;;5.40;;
3696;SDS011;60662;48.810;8.872;2023-02-21T08:41:57;10.63;;;4.93;;
3696;SDS011;60662;48.810;8.872;2023-02-21T08:42:59;18.50;;;5.65;;
3696;SDS011;60662;48.810;8.872;2023-02-21T08:44:00;17.85;;;6.25;;
3696;SDS011;60662;48.810;8.872;2023-02-21T08:45:02;21.42;;;5.93;;
3696;SDS011;60662;48.810;8.872;2023-02-21T08:46:03;22.20;;;5.53;;
3696;SDS011;60662;48.810;8.872;2023-02-21T08:47:05;21.50;;;5.10;;
3696;SDS011;60662;48.810;8.872;2023-02-21T08:48:07;24.98;;;4.80;;
3696;SDS011;60662;48.810;8.872;2023-02-21T08:49:08;27.17;;;5.55;;
3696;SDS011;60662;48.810;8.872;2023-02-21T08:50:10;13.60;;;4.75;;
3696;SDS011;60662;48.810;8.872;2023-02-21T08:51:12;26.15;;;5.20;;
3696;SDS011;60662;48.810;8.872;2023-02-21T08:52:15;15.57;;;4.50;;
3696;SDS011;60662;48.810;8.872;2023-02-21T08:53:19;17.13;;;4.13;;
3696;SDS011;60662;48.810;8.872;2023-02-21T08:54:20;32.03;;;5.30;;
3696;SDS011;60662;48.810;8.872;2023-02-21T08:55:21;13.70;;;4.23;;
3696;SDS011;60662;48.810;8.872;2023-02-21T08:56:23;29.47;;;4.40;;
3696;SDS011;60662;48.810;8.872;2023-02-21T08:57:26;20.73;;;4.10;;
3696;SDS011;60662;48.810;8.872;2023-02-21T08:58:27;31.43;;;4.23;;
3696;SDS011;60662;48.810;8.872;2023-02-21T08:59:28;22.33;;;3.13;;
3696;SDS011;60662;48.810;8.872;2023-02-21T09:00:33;13.67;;;3.43;;
3696;SDS011;60662;48.810;8.872;2023-02-21T09:01:35;15.43;;;3.87;;
3696;SDS011;60662;48.810;8.872;2023-02-21T09:02:37;27.70;;;3.80;;
3696;SDS011;60662;48.810;8.872;2023-02-21T09:03:40;15.43;;;4.10;;
3696;SDS011;60662;48.810;8.872;2023-02-21T09:04:41;21.63;;;3.63;;
3696;SDS011;60662;48.810;8.872;2023-02-21T09:05:43;14.03;;;3.20;;
3696;SDS011;60662;48.810;8.872;2023-02-21T09:06:45;29.30;;;3.77;;
3696;SDS011;60662;48.810;8.872;2023-02-21T09:07:47;23.77;;;3.40;;
3696;SDS011;60662;48.810;8.872;2023-02-21T09:08:49;14.33;;;3.10;;
3696;SDS011;60662;48.810;8.872;2023-02-21T09:09:50;20.07;;;3.53;;
3696;SDS011;60662;48.810;8.872;2023-02-21T09:10:52;19.63;;;2.97;;
3696;SDS011;60662;48.810;8.872;2023-02-21T09:11:55;21.37;;;3.63;;
3696;SDS011;60662;48.810;8.872;2023-02-21T09:12:58;20.70;;;3.50;;
3696;SDS011;60662;48.810;8.872;2023-02-21T09:14:00;13.30;;;2.70;;
3696;SDS011;60662;48.810;8.872;2023-02-21T09:15:01;21.23;;;4.13;;
3696;SDS011;60662;48.810;8.872;2023-02-21T09:16:03;18.93;;;4.17;;
3696;SDS011;60662;48.810;8.872;2023-02-21T09:17:06;37.27;;;4.00;;
3696;SDS011;60662;48.810;8.872;2023-02-21T09:18:08;18.80;;;4.00;;
3696;SDS011;60662;48.810;8.872;2023-02-21T09:19:11;31.83;;;3.90;;
3696;SDS011;60662;48.810;8.872;2023-02-21T09:20:14;12.57;;;2.90;;
3696;SDS011;60662;48.810;8.872;2023-02-21T09:21:18;30.57;;;3.90;;
3696;SDS011;60662;48.810;8.872;2023-02-21T09:22:19;15.60;;;3.53;;
3696;SDS011;60662;48.810;8.872;2023-02-21T09:23:22;15.67;;;3.10;;
3696;SDS011;60662;48.810;8.872;2023-02-21T09:24:28;11.93;;;2.70;;
3696;SDS011;60662;48.810;8.872;2023-02-21T09:25:30;13.37;;;3.13;;
3696;SDS011;60662;48.810;8.872;2023-02-21T09:26:31;15.00;;;3.40;;
3696;SDS011;60662;48.810;8.872;2023-02-21T09:27:33;13.80;;;2.70;;
3696;SDS011;60662;48.810;8.872;2023-02-21T09:28:37;12.87;;;2.03;;
3696;SDS011;60662;48.810;8.872;2023-02-21T09:29:43;7.23;;;2.50;;
3696;SDS011;60662;48.810;8.872;2023-02-21T09:30:47;16.80;;;3.03;;
3696;SDS011;60662;48.810;8.872;2023-02-21T09:31:51;25.43;;;4.13;;
3696;SDS011;60662;48.810;8.872;2023-02-21T09:32:53;16.53;;;3.60;;
3696;SDS011;60662;48.810;8.872;2023-02-21T09:33:55;27.83;;;2.70;;
3696;SDS011;60662;48.810;8.872;2023-02-21T09:34:57;13.10;;;2.20;;
3696;SDS011;60662;48.810;8.872;2023-02-21T09:35:59;5.97;;;1.97;;
3696;SDS011;60662;48.810;8.872;2023-02-21T09:37:03;18.87;;;1.43;;
3696;SDS011;60662;48.810;8.872;2023-02-21T09:38:06;10.77;;;1.70;;
3696;SDS011;60662;48.810;8.872;2023-02-21T09:39:08;6.23;;;1.83;;
3696;SDS011;60662;48.810;8.872;2023-02-21T09:40:23;7.10;;;1.20;;
3696;SDS011;60662;48.810;8.872;2023-02-21T09:41:25;16.57;;;1.83;;
3696;SDS011;60662;48.810;8.872;2023-02-21T09:42:28;7.47;;;1.63;;
3696;SDS011;60662;48.810;8.872;2023-02-21T09:43:35;13.63;;;1.77;;
3696;SDS011;60662;48.810;8.872;2023-02-21T09:44:39;8.10;;;1.77;;
3696;SDS011;60662;48.810;8.872;2023-02-21T09:45:41;5.33;;;1.13;;
3696;SDS011;60662;48.810;8.872;2023-02-21T09:46:45;15.07;;;3.20;;
3696;SDS011;60662;48.810;8.872;2023-02-21T09:47:50;14.60;;;2.53;;
3696;SDS011;60662;48.810;8.872;2023-02-21T09:48:56;12.03;;;2.40;;
3696;SDS011;60662;48.810;8.872;2023-02-21T09:50:10;17.07;;;2.20;;
3696;SDS011;60662;48.810;8.872;2023-02-21T09:51:14;12.73;;;2.50;;
3696;SDS011;60662;48.810;8.872;2023-02-21T09:52:22;10.67;;;2.33;;
3696;SDS011;60662;48.810;8.872;2023-02-21T09:53:41;9.03;;;1.93;;
3696;SDS011;60662;48.810;8.872;2023-02-21T09:54:45;11.17;;;1.73;;
3696;SDS011;60662;48.810;8.872;2023-02-21T09:55:53;11.10;;;1.90;;
3696;SDS011;60662;48.810;8.872;2023-02-21T09:57:02;16.10;;;2.10;;
3696;SDS011;60662;48.810;8.872;2023-02-21T09:58:12;6.60;;;1.87;;
3696;SDS011;60662;48.810;8.872;2023-02-21T09:59:15;11.53;;;2.20;;
3696;SDS011;60662;48.810;8.872;2023-02-21T10:00:21;22.60;;;2.23;;
3696;SDS011;60662;48.810;8.872;2023-02-21T10:02:47;9.13;;;2.23;;
3696;SDS011;60662;48.810;8.872;2023-02-21T10:03:53;5.43;;;1.83;;
3696;SDS011;60662;48.810;8.872;2023-02-21T10:05:07;12.90;;;2.50;;
3696;SDS011;60662;48.810;8.872;2023-02-21T10:06:36;3.43;;;1.67;;
3696;SDS011;60662;48.810;8.872;2023-02-21T10:10:37;10.13;;;1.70;;
3696;SDS011;60662;48.810;8.872;2023-02-21T10:12:11;11.57;;;1.90;;
3696;SDS011;60662;48.810;8.872;2023-02-21T10:13:41;4.13;;;1.60;;
3696;SDS011;60662;48.810;8.872;2023-02-21T10:14:58;4.70;;;1.70;;
3696;SDS011;60662;48.810;8.872;2023-02-21T10:17:44;3.65;;;1.45;;
3696;SDS011;60662;48.810;8.872;2023-02-21T10:19:00;4.55;;;1.92;;
3696;SDS011;60662;48.810;8.872;2023-02-21T10:21:54;3.83;;;1.60;;
3696;SDS011;60662;48.810;8.872;2023-02-21T10:22:59;7.22;;;1.83;;
3696;SDS011;60662;48.810;8.872;2023-02-21T10:24:02;2.92;;;1.42;;
3696;SDS011;60662;48.810;8.872;2023-02-21T10:25:25;4.45;;;1.77;;
3696;SDS011;60662;48.810;8.872;2023-02-21T10:26:36;2.65;;;1.40;;
3696;SDS011;60662;48.810;8.872;2023-02-21T10:27:42;4.70;;;1.33;;
3696;SDS011;60662;48.810;8.872;2023-02-21T10:28:43;4.60;;;2.00;;
3696;SDS011;60662;48.810;8.872;2023-02-21T10:29:53;5.78;;;1.58;;
3696;SDS011;60662;48.810;8.872;2023-02-21T10:31:02;4.03;;;2.30;;
3696;SDS011;60662;48.810;8.872;2023-02-21T10:32:09;2.97;;;1.55;;
3696;SDS011;60662;48.810;8.872;2023-02-21T10:33:10;2.60;;;1.20;;
3696;SDS011;60662;48.810;8.872;2023-02-21T10:34:45;6.60;;;1.83;;
3696;SDS011;60662;48.810;8.872;2023-02-21T10:35:47;4.13;;;1.20;;
3696;SDS011;60662;48.810;8.872;2023-02-21T10:36:48;3.20;;;1.13;;
3696;SDS011;60662;48.810;8.872;2023-02-21T10:37:51;5.82;;;1.48;;
3696;SDS011;60662;48.810;8.872;2023-02-21T10:39:03;2.85;;;1.50;;
3696;SDS011;60662;48.810;8.872;2023-02-21T10:40:23;2.60;;;1.40;;
3696;SDS011;60662;48.810;8.872;2023-02-21T10:41:36;2.65;;;1.65;;
3696;SDS011;60662;48.810;8.872;2023-02-21T10:42:42;11.27;;;1.50;;
3696;SDS011;60662;48.810;8.872;2023-02-21T10:43:52;2.65;;;1.15;;
3696;SDS011;60662;48.810;8.872;2023-02-21T10:45:00;1.30;;;1.02;;
3696;SDS011;60662;48.810;8.872;2023-02-21T10:47:41;4.00;;;1.00;;
3696;SDS011;60662;48.810;8.872;2023-02-21T10:48:52;2.95;;;1.25;;
3696;SDS011;60662;48.810;8.872;2023-02-21T10:49:59;9.90;;;1.25;;
3696;SDS011;60662;48.810;8.872;2023-02-21T10:52:14;3.75;;;1.00;;
3696;SDS011;60662;48.810;8.872;2023-02-21T10:54:30;2.95;;;1.35;;
3696;SDS011;60662;48.810;8.872;2023-02-21T10:55:35;2.55;;;1.05;;
3696;SDS011;60662;48.810;8.872;2023-02-21T10:56:36;2.47;;;1.20;;
3696;SDS011;60662;48.810;8.872;2023-02-21T10:57:40;3.08;;;1.00;;
3696;SDS011;60662;48.810;8.872;2023-02-21T10:58:44;3.42;;;1.10;;
3696;SDS011;60662;48.810;8.872;2023-02-21T10:59:52;3.88;;;1.48;;
3696;SDS011;60662;48.810;8.872;2023-02-21T11:00:53;3.00;;;1.15;;
3696;SDS011;60662;48.810;8.872;2023-02-21T11:01:56;5.30;;;1.27;;
3696;SDS011;60662;48.810;8.872;2023-02-21T11:03:02;3.85;;;1.20;;
3696;SDS011;60662;48.810;8.872;2023-02-21T11:05:16;4.97;;;1.48;;
3696;SDS011;60662;48.810;8.872;2023-02-21T11:06:20;8.05;;;1.63;;
3696;SDS011;60662;48.810;8.872;2023-02-21T11:08:00;7.43;;;1.25;;
3696;SDS011;60662;48.810;8.872;2023-02-21T11:10:32;2.92;;;1.20;;
3696;SDS011;60662;48.810;8.872;2023-02-21T11:11:40;5.65;;;1.30;;
3696;SDS011;60662;48.810;8.872;2023-02-21T11:12:42;7.57;;;1.15;;
3696;SDS011;60662;48.810;8.872;2023-02-21T11:13:44;11.82;;;2.47;;
3696;SDS011;60662;48.810;8.872;2023-02-21T11:17:31;3.78;;;1.17;;
3696;SDS011;60662;48.810;8.872;2023-02-21T11:18:33;3.00;;;1.10;;
3696;SDS011;60662;48.810;8.872;2023-02-21T11:21:11;2.45;;;0.80;;
3696;SDS011;60662;48.810;8.872;2023-02-21T11:22:17;2.05;;;0.80;;
3696;SDS011;60662;48.810;8.872;2023-02-21T11:23:35;10.68;;;1.40;;
3696;SDS011;60662;48.810;8.872;2023-02-21T11:26:05;12.57;;;1.23;;
3696;SDS011;60662;48.810;8.872;2023-02-21T11:27:09;6.10;;;1.35;;
3696;SDS011;60662;48.810;8.872;2023-02-21T11:29:18;7.22;;;1.08;;
3696;SDS011;60662;48.810;8.872;2023-02-21T11:30:24;8.25;;;1.10;;
3696;SDS011;60662;48.810;8.872;2023-02-21T11:31:27;1.95;;;0.80;;
3696;SDS011;60662;48.810;8.872;2023-02-21T11:32:32;8.10;;;1.10;;
3696;SDS011;60662;48.810;8.872;2023-02-21T11:33:39;4.95;;;1.00;;
3696;SDS011;60662;48.810;8.872;2023-02-21T11:34:59;4.43;;;0.90;;
3696;SDS011;60662;48.810;8.872;2023-02-21T11:36:10;3.50;;;0.90;;
3696;SDS011;60662;48.810;8.872;2023-02-21T11:37:15;4.05;;;0.88;;
3696;SDS011;60662;48.810;8.872;2023-02-21T11:38:34;5.80;;;1.10;;
3696;SDS011;60662;48.810;8.872;2023-02-21T11:39:41;2.67;;;1.02;;
3696;SDS011;60662;48.810;8.872;2023-02-21T11:40:51;1.33;;;0.88;;
3696;SDS011;60662;48.810;8.872;2023-02-21T11:41:53;7.15;;;1.02;;
3696;SDS011;60662;48.810;8.872;2023-02-21T11:43:13;8.35;;;1.10;;
3696;SDS011;60662;48.810;8.872;2023-02-21T11:44:28;4.57;;;1.20;;
3696;SDS011;60662;48.810;8.872;2023-02-21T11:45:39;6.10;;;1.00;;
3696;SDS011;60662;48.810;8.872;2023-02-21T11:46:47;1.90;;;0.90;;
3696;SDS011;60662;48.810;8.872;2023-02-21T11:47:58;3.90;;;1.48;;
3696;SDS011;60662;48.810;8.872;2023-02-21T11:50:27;2.00;;;0.93;;
3696;SDS011;60662;48.810;8.872;2023-02-21T11:51:38;10.60;;;1.30;;
3696;SDS011;60662;48.810;8.872;2023-02-21T11:52:45;4.25;;;1.20;;
3696;SDS011;60662;48.810;8.872;2023-02-21T11:54:00;9.43;;;1.30;;
3696;SDS011;60662;48.810;8.872;2023-02-21T11:55:07;4.45;;;1.08;;
3696;SDS011;60662;48.810;8.872;2023-02-21T11:57:48;3.85;;;0.95;;
3696;SDS011;60662;48.810;8.872;2023-02-21T11:59:21;5.50;;;0.80;;
3696;SDS011;60662;48.810;8.872;2023-02-21T12:02:02;16.60;;;1.50;;
3696;SDS011;60662;48.810;8.872;2023-02-21T12:04:51;4.65;;;0.80;;
3696;SDS011;60662;48.810;8.872;2023-02-21T12:06:07;4.47;;;1.00;;
3696;SDS011;60662;48.810;8.872;2023-02-21T12:07:32;3.28;;;1.00;;
3696;SDS011;60662;48.810;8.872;2023-02-21T12:09:14;4.68;;;0.88;;
3696;SDS011;60662;48.810;8.872;2023-02-21T12:15:51;2.00;;;0.80;;
3696;SDS011;60662;48.810;8.872;2023-02-21T12:23:00;3.25;;;0.85;;
3696;SDS011;60662;48.810;8.872;2023-02-21T12:25:50;9.02;;;1.10;;
3696;SDS011;60662;48.810;8.872;2023-02-21T12:27:06;2.80;;;1.10;;
3696;SDS011;60662;48.810;8.872;2023-02-21T12:31:59;11.88;;;0.90;;
3696;SDS011;60662;48.810;8.872;2023-02-21T12:36:51;7.65;;;1.00;;
3696;SDS011;60662;48.810;8.872;2023-02-21T12:37:43;2.92;;;0.90;;
3696;SDS011;60662;48.810;8.872;2023-02-21T12:43:42;1.10;;;0.70;;
3696;SDS011;60662;48.810;8.872;2023-02-21T12:46:03;2.58;;;0.80;;
3696;SDS011;60662;48.810;8.872;2023-02-21T12:47:17;1.92;;;0.90;;
3696;SDS011;60662;48.810;8.872;2023-02-21T12:48:26;6.63;;;0.98;;
3696;SDS011;60662;48.810;8.872;2023-02-21T12:49:41;3.17;;;0.90;;
3696;SDS011;60662;48.810;8.872;2023-02-21T12:50:54;9.27;;;1.02;;
3696;SDS011;60662;48.810;8.872;2023-02-21T12:52:48;3.70;;;0.93;;
3696;SDS011;60662;48.810;8.872;2023-02-21T12:53:39;2.10;;;0.90;;
3696;SDS011;60662;48.810;8.872;2023-02-21T12:56:06;2.10;;;0.80;;
3696;SDS011;60662;48.810;8.872;2023-02-21T12:57:15;3.75;;;0.90;;
3696;SDS011;60662;48.810;8.872;2023-02-21T12:58:26;4.22;;;0.90;;
3696;SDS011;60662;48.810;8.872;2023-02-21T13:01:27;3.75;;;0.70;;
3696;SDS011;60662;48.810;8.872;2023-02-21T13:02:38;2.10;;;0.90;;
3696;SDS011;60662;48.810;8.872;2023-02-21T13:05:17;1.55;;;0.77;;
3696;SDS011;60662;48.810;8.872;2023-02-21T13:07:59;2.17;;;0.82;;
3696;SDS011;60662;48.810;8.872;2023-02-21T13:10:19;2.90;;;0.77;;
3696;SDS011;60662;48.810;8.872;2023-02-21T13:11:49;2.22;;;0.80;;
3696;SDS011;60662;48.810;8.872;2023-02-21T13:13:11;1.85;;;0.60;;
3696;SDS011;60662;48.810;8.872;2023-02-21T13:14:17;5.28;;;1.00;;
3696;SDS011;60662;48.810;8.872;2023-02-21T13:15:27;3.13;;;1.00;;
3696;SDS011;60662;48.810;8.872;2023-02-21T13:16:30;2.65;;;0.80;;
3696;SDS011;60662;48.810;8.872;2023-02-21T13:17:31;1.30;;;0.73;;
3696;SDS011;60662;48.810;8.872;2023-02-21T13:18:34;4.43;;;0.90;;
3696;SDS011;60662;48.810;8.872;2023-02-21T13:19:49;3.70;;;0.93;;
3696;SDS011;60662;48.810;8.872;2023-02-21T13:22:30;1.75;;;0.70;;
3696;SDS011;60662;48.810;8.872;2023-02-21T13:24:35;4.20;;;0.90;;
3696;SDS011;60662;48.810;8.872;2023-02-21T13:28:40;1.10;;;0.60;;
3696;SDS011;60662;48.810;8.872;2023-02-21T13:29:44;2.35;;;0.68;;
3696;SDS011;60662;48.810;8.872;2023-02-21T13:30:53;1.30;;;0.70;;
3696;SDS011;60662;48.810;8.872;2023-02-21T13:32:00;1.80;;;0.98;;
3696;SDS011;60662;48.810;8.872;2023-02-21T13:33:20;3.30;;;0.75;;
3696;SDS011;60662;48.810;8.872;2023-02-21T13:34:59;8.23;;;1.02;;
3696;SDS011;60662;48.810;8.872;2023-02-21T13:36:26;1.42;;;0.60;;
3696;SDS011;60662;48.810;8.872;2023-02-21T13:37:26;6.22;;;0.90;;
3696;SDS011;60662;48.810;8.872;2023-02-21T13:38:30;1.40;;;0.70;;
3696;SDS011;60662;48.810;8.872;2023-02-21T13:39:32;2.95;;;0.70;;
3696;SDS011;60662;48.810;8.872;2023-02-21T13:42:07;12.15;;;0.80;;
3696;SDS011;60662;48.810;8.872;2023-02-21T13:43:24;9.02;;;0.70;;
3696;SDS011;60662;48.810;8.872;2023-02-21T13:44:31;1.17;;;0.60;;
3696;SDS011;60662;48.810;8.872;2023-02-21T13:45:35;2.97;;;0.80;;
3696;SDS011;60662;48.810;8.872;2023-02-21T13:48:24;2.25;;;0.85;;
3696;SDS011;60662;48.810;8.872;2023-02-21T13:50:40;3.25;;;0.88;;
3696;SDS011;60662;48.810;8.872;2023-02-21T13:51:47;1.20;;;0.70;;
3696;SDS011;60662;48.810;8.872;2023-02-21T13:52:51;4.50;;;1.02;;
3696;SDS011;60662;48.810;8.872;2023-02-21T13:54:09;2.47;;;0.80;;
3696;SDS011;60662;48.810;8.872;2023-02-21T13:56:20;3.58;;;0.80;;
3696;SDS011;60662;48.810;8.872;2023-02-21T14:01:39;4.35;;;0.70;;
3696;SDS011;60662;48.810;8.872;2023-02-21T14:02:53;3.42;;;0.73;;
3696;SDS011;60662;48.810;8.872;2023-02-21T14:03:54;3.20;;;0.80;;
3696;SDS011;60662;48.810;8.872;2023-02-21T14:05:00;3.35;;;0.80;;
3696;SDS011;60662;48.810;8.872;2023-02-21T14:07:09;3.20;;;0.80;;
3696;SDS011;60662;48.810;8.872;2023-02-21T14:09:24;1.58;;;0.85;;
3696;SDS011;60662;48.810;8.872;2023-02-21T14:11:48;2.10;;;0.80;;
3696;SDS011;60662;48.810;8.872;2023-02-21T14:12:56;1.15;;;0.63;;
3696;SDS011;60662;48.810;8.872;2023-02-21T14:14:23;1.67;;;0.80;;
3696;SDS011;60662;48.810;8.872;2023-02-21T14:15:40;1.92;;;0.90;;
3696;SDS011;60662;48.810;8.872;2023-02-21T14:16:48;1.23;;;0.75;;
3696;SDS011;60662;48.810;8.872;2023-02-21T14:17:53;3.08;;;0.98;;
3696;SDS011;60662;48.810;8.872;2023-02-21T14:19:08;1.30;;;0.70;;
3696;SDS011;60662;48.810;8.872;2023-02-21T14:20:15;3.55;;;0.60;;
3696;SDS011;60662;48.810;8.872;2023-02-21T14:21:33;1.77;;;0.80;;
3696;SDS011;60662;48.810;8.872;2023-02-21T14:22:37;1.27;;;0.68;;
3696;SDS011;60662;48.810;8.872;2023-02-21T14:23:46;2.75;;;0.70;;
3696;SDS011;60662;48.810;8.872;2023-02-21T14:24:51;2.75;;;0.70;;
3696;SDS011;60662;48.810;8.872;2023-02-21T14:26:03;1.65;;;0.68;;
3696;SDS011;60662;48.810;8.872;2023-02-21T14:31:01;1.70;;;0.88;;
3696;SDS011;60662;48.810;8.872;2023-02-21T14:33:09;2.13;;;0.80;;
3696;SDS011;60662;48.810;8.872;2023-02-21T14:34:26;2.38;;;0.80;;
3696;SDS011;60662;48.810;8.872;2023-02-21T14:35:42;1.40;;;0.60;;
3696;SDS011;60662;48.810;8.872;2023-02-21T14:36:50;1.30;;;0.70;;
3696;SDS011;60662;48.810;8.872;2023-02-21T14:38:00;1.73;;;0.77;;
3696;SDS011;60662;48.810;8.872;2023-02-21T14:39:02;3.60;;;0.75;;
3696;SDS011;60662;48.810;8.872;2023-02-21T14:41:19;6.63;;;2.10;;
3696;SDS011;60662;48.810;8.872;2023-02-21T14:45:03;5.63;;;0.77;;
3696;SDS011;60662;48.810;8.872;2023-02-21T14:48:44;10.05;;;0.90;;
3696;SDS011;60662;48.810;8.872;2023-02-21T15:00:44;4.90;;;0.82;;
3696;SDS011;60662;48.810;8.872;2023-02-21T15:03:04;7.57;;;1.40;;
3696;SDS011;60662;48.810;8.872;2023-02-21T15:07:09;8.57;;;2.35;;
3696;SDS011;60662;48.810;8.872;2023-02-21T15:08:16;6.10;;;1.95;;
3696;SDS011;60662;48.810;8.872;2023-02-21T15:09:19;7.10;;;2.30;;
3696;SDS011;60662;48.810;8.872;2023-02-21T15:10:22;12.90;;;1.90;;
3696;SDS011;60662;48.810;8.872;2023-02-21T15:11:29;12.85;;;3.22;;
3696;SDS011;60662;48.810;8.872;2023-02-21T15:12:39;11.52;;;2.88;;
3696;SDS011;60662;48.810;8.872;2023-02-21T15:13:44;6.43;;;2.40;;
3696;SDS011;60662;48.810;8.872;2023-02-21T15:14:47;7.20;;;1.88;;
3696;SDS011;60662;48.810;8.872;2023-02-21T15:15:59;11.43;;;2.60;;
3696;SDS011;60662;48.810;8.872;2023-02-21T15:17:11;7.28;;;2.40;;
3696;SDS011;60662;48.810;8.872;2023-02-21T15:18:29;7.05;;;2.47;;
3696;SDS011;60662;48.810;8.872;2023-02-21T15:19:32;8.30;;;2.08;;
3696;SDS011;60662;48.810;8.872;2023-02-21T15:20:37;7.45;;;2.25;;
3696;SDS011;60662;48.810;8.872;2023-02-21T15:21:42;16.85;;;3.03;;
3696;SDS011;60662;48.810;8.872;2023-02-21T15:22:44;6.75;;;2.42;;
3696;SDS011;60662;48.810;8.872;2023-02-21T15:23:46;5.32;;;1.92;;
3696;SDS011;60662;48.810;8.872;2023-02-21T15:25:11;8.40;;;2.15;;
3696;SDS011;60662;48.810;8.872;2023-02-21T15:27:23;5.15;;;2.10;;
3696;SDS011;60662;48.810;8.872;2023-02-21T15:28:29;12.45;;;2.28;;
3696;SDS011;60662;48.810;8.872;2023-02-21T15:29:32;5.68;;;2.63;;
3696;SDS011;60662;48.810;8.872;2023-02-21T15:30:35;7.90;;;2.47;;
3696;SDS011;60662;48.810;8.872;2023-02-21T15:31:42;4.68;;;2.30;;
3696;SDS011;60662;48.810;8.872;2023-02-21T15:34:25;8.77;;;2.03;;
3696;SDS011;60662;48.810;8.872;2023-02-21T15:35:31;7.60;;;2.50;;
3696;SDS011;60662;48.810;8.872;2023-02-21T15:36:35;11.65;;;2.00;;
3696;SDS011;60662;48.810;8.872;2023-02-21T15:37:37;8.15;;;1.83;;
3696;SDS011;60662;48.810;8.872;2023-02-21T15:39:53;9.27;;;2.42;;
3696;SDS011;60662;48.810;8.872;2023-02-21T15:40:59;5.28;;;2.22;;
3696;SDS011;60662;48.810;8.872;2023-02-21T15:42:20;4.85;;;2.15;;
3696;SDS011;60662;48.810;8.872;2023-02-21T15:43:27;8.23;;;2.45;;
3696;SDS011;60662;48.810;8.872;2023-02-21T15:45:46;7.72;;;2.67;;
3696;SDS011;60662;48.810;8.872;2023-02-21T15:47:53;6.65;;;2.30;;
3696;SDS011;60662;48.810;8.872;2023-02-21T15:48:56;7.55;;;2.67;;
3696;SDS011;60662;48.810;8.872;2023-02-21T15:51:37;7.47;;;2.55;;
3696;SDS011;60662;48.810;8.872;2023-02-21T15:52:41;5.70;;;2.25;;
3696;SDS011;60662;48.810;8.872;2023-02-21T15:53:43;10.20;;;2.50;;
3696;SDS011;60662;48.810;8.872;2023-02-21T15:56:23;3.95;;;2.33;;
3696;SDS011;60662;48.810;8.872;2023-02-21T15:57:28;9.45;;;2.35;;
3696;SDS011;60662;48.810;8.872;2023-02-21T15:58:29;7.60;;;2.22;;
3696;SDS011;60662;48.810;8.872;2023-02-21T15:59:31;10.88;;;3.20;;
3696;SDS011;60662;48.810;8.872;2023-02-21T16:00:34;10.98;;;2.28;;
3696;SDS011;60662;48.810;8.872;2023-02-21T16:01:37;7.00;;;2.10;;
3696;SDS011;60662;48.810;8.872;2023-02-21T16:02:39;7.22;;;3.03;;
3696;SDS011;60662;48.810;8.872;2023-02-21T16:03:42;15.95;;;2.55;;
3696;SDS011;60662;48.810;8.872;2023-02-21T16:04:48;10.02;;;2.80;;
3696;SDS011;60662;48.810;8.872;2023-02-21T16:05:51;18.13;;;3.90;;
3696;SDS011;60662;48.810;8.872;2023-02-21T16:06:55;12.15;;;3.60;;
3696;SDS011;60662;48.810;8.872;2023-02-21T16:08:02;10.25;;;3.13;;
3696;SDS011;60662;48.810;8.872;2023-02-21T16:09:06;8.88;;;2.72;;
3696;SDS011;60662;48.810;8.872;2023-02-21T16:10:22;5.15;;;2.60;;
3696;SDS011;60662;48.810;8.872;2023-02-21T16:11:25;6.93;;;2.83;;
3696;SDS011;60662;48.810;8.872;2023-02-21T16:12:53;10.65;;;2.90;;
3696;SDS011;60662;48.810;8.872;2023-02-21T16:13:56;7.75;;;2.85;;
3696;SDS011;60662;48.810;8.872;2023-02-21T16:14:59;7.88;;;3.25;;
3696;SDS011;60662;48.810;8.872;2023-02-21T16:16:03;9.02;;;2.95;;
3696;SDS011;60662;48.810;8.872;2023-02-21T16:17:21;11.25;;;3.17;;
3696;SDS011;60662;48.810;8.872;2023-02-21T16:18:26;5.32;;;2.80;;
3696;SDS011;60662;48.810;8.872;2023-02-21T16:19:29;8.63;;;2.97;;
3696;SDS011;60662;48.810;8.872;2023-02-21T16:20:33;9.57;;;3.35;;
3696;SDS011;60662;48.810;8.872;2023-02-21T16:21:35;11.90;;;2.75;;
3696;SDS011;60662;48.810;8.872;2023-02-21T16:22:37;9.15;;;3.63;;
3696;SDS011;60662;48.810;8.872;2023-02-21T16:24:13;12.43;;;3.28;;
3696;SDS011;60662;48.810;8.872;2023-02-21T16:25:31;27.83;;;3.10;;
3696;SDS011;60662;48.810;8.872;2023-02-21T16:26:33;12.13;;;2.70;;
3696;SDS011;60662;48.810;8.872;2023-02-21T16:27:35;6.68;;;3.03;;
3696;SDS011;60662;48.810;8.872;2023-02-21T16:28:40;7.00;;;3.10;;
3696;SDS011;60662;48.810;8.872;2023-02-21T16:29:43;13.23;;;3.75;;
3696;SDS011;60662;48.810;8.872;2023-02-21T16:30:44;7.32;;;2.80;;
3696;SDS011;60662;48.810;8.872;2023-02-21T16:31:46;11.32;;;3.20;;
3696;SDS011;60662;48.810;8.872;2023-02-21T16:32:50;5.88;;;2.70;;
3696;SDS011;60662;48.810;8.872;2023-02-21T16:33:53;6.78;;;2.70;;
3696;SDS011;60662;48.810;8.872;2023-02-21T16:34:55;11.00;;;3.33;;
3696;SDS011;60662;48.810;8.872;2023-02-21T16:35:57;6.63;;;2.53;;
3696;SDS011;60662;48.810;8.872;2023-02-21T16:37:05;5.95;;;2.92;;
3696;SDS011;60662;48.810;8.872;2023-02-21T16:38:15;8.13;;;4.00;;
3696;SDS011;60662;48.810;8.872;2023-02-21T16:39:18;5.95;;;3.08;;
3696;SDS011;60662;48.810;8.872;2023-02-21T16:40:21;8.77;;;3.13;;
3696;SDS011;60662;48.810;8.872;2023-02-21T16:41:25;14.20;;;3.80;;
3696;SDS011;60662;48.810;8.872;2023-02-21T16:42:26;9.95;;;2.72;;
3696;SDS011;60662;48.810;8.872;2023-02-21T16:43:28;9.10;;;3.97;;
3696;SDS011;60662;48.810;8.872;2023-02-21T16:44:30;11.38;;;3.35;;
3696;SDS011;60662;48.810;8.872;2023-02-21T16:45:31;15.07;;;4.20;;
3696;SDS011;60662;48.810;8.872;2023-02-21T16:46:33;13.90;;;4.05;;
3696;SDS011;60662;48.810;8.872;2023-02-21T16:47:34;23.20;;;3.95;;
3696;SDS011;60662;48.810;8.872;2023-02-21T16:48:36;16.75;;;4.65;;
3696;SDS011;60662;48.810;8.872;2023-02-21T16:49:37;17.40;;;4.72;;
